Time;durP1;ratioP1;P1;durP2;ratioP2;P2;SDS_P1;SDS_P2;PMS_P1;PMS_P2;Temp;Humidity;BMP_temperature;BMP_pressure;BME280_temperature;BME280_humidity;BME280_pressure;Samples;Min_cycle;Max_cycle;Signal;HPM_P1;HPM_P2
2021/10/01 00:01:36;;;;;;;9.75;6.95;;;;;;;12.77;83.90;98764.66;1773241;81;21022;-78
2021/10/01 00:04:03;;;;;;;9.58;6.47;;;;;;;12.76;83.78;98769.13;1745082;81;21057;-78
2021/10/01 00:06:31;;;;;;;9.18;6.62;;;;;;;12.75;84.00;98760.70;1754477;81;21467;-78
2021/10/01 00:08:58;;;;;;;9.68;6.83;;;;;;;12.72;83.90;98754.16;1744548;82;20998;-78
2021/10/01 00:11:25;;;;;;;9.78;6.70;;;;;;;12.70;84.01;98763.94;1744202;82;21069;-78
2021/10/01 00:13:52;;;;;;;9.30;6.50;;;;;;;12.70;84.23;98760.42;1766912;81;21442;-78
2021/10/01 00:16:18;;;;;;;8.78;6.10;;;;;;;12.69;83.96;98756.88;1747237;80;21468;-77
2021/10/01 00:18:45;;;;;;;11.25;7.25;;;;;;;12.67;84.08;98754.26;1723342;83;20990;-78
2021/10/01 00:21:11;;;;;;;8.65;6.42;;;;;;;12.66;83.62;98750.30;1723323;83;21080;-77
2021/10/01 00:23:38;;;;;;;8.90;5.87;;;;;;;12.65;83.93;98748.56;1737866;80;21004;-78
2021/10/01 00:26:06;;;;;;;10.40;6.62;;;;;;;12.62;83.94;98749.99;1753217;81;21408;-77
2021/10/01 00:28:32;;;;;;;7.67;5.92;;;;;;;12.61;83.88;98741.13;1753475;82;21049;-78
2021/10/01 00:30:59;;;;;;;9.73;6.37;;;;;;;12.59;83.92;98744.30;1753406;82;21014;-78
2021/10/01 00:33:28;;;;;;;8.88;6.62;;;;;;;12.60;84.25;98746.48;1757355;80;20954;-78
2021/10/01 00:35:54;;;;;;;8.08;6.17;;;;;;;12.57;84.17;98746.58;1776103;81;21004;-78
2021/10/01 00:38:21;;;;;;;8.83;6.35;;;;;;;12.56;84.25;98740.81;1752479;80;20973;-78
2021/10/01 00:40:47;;;;;;;9.03;6.22;;;;;;;12.55;84.30;98742.63;1738046;80;21028;-78
2021/10/01 00:43:14;;;;;;;8.30;5.42;;;;;;;12.54;84.12;98736.86;1750883;80;20942;-78
2021/10/01 00:45:41;;;;;;;10.10;6.35;;;;;;;12.53;84.42;98735.13;1783965;80;21002;-77
2021/10/01 00:48:07;;;;;;;9.00;6.05;;;;;;;12.57;84.07;98733.28;1753472;80;21037;-77
2021/10/01 00:50:36;;;;;;;9.58;6.05;;;;;;;12.58;84.25;98732.36;1752700;82;21041;-78
2021/10/01 00:53:03;;;;;;;8.40;5.42;;;;;;;12.60;84.05;98730.08;1770038;80;20976;-77
2021/10/01 00:55:31;;;;;;;9.58;5.47;;;;;;;12.62;84.12;98726.91;1761347;80;20989;-77
2021/10/01 00:57:59;;;;;;;7.10;5.45;;;;;;;12.66;84.47;98730.36;1776955;80;21025;-77
2021/10/01 01:00:29;;;;;;;7.55;5.55;;;;;;;12.71;84.64;98722.28;1755514;81;21362;-77
2021/10/01 01:02:59;;;;;;;6.60;5.10;;;;;;;12.75;84.67;98721.28;1784073;80;20963;-77
2021/10/01 01:05:37;;;;;;;8.65;5.97;;;;;;;12.78;84.78;98722.06;1757565;80;21492;-78
2021/10/01 01:08:10;;;;;;;7.03;5.05;;;;;;;12.81;85.00;98713.13;1744949;80;21423;-77
2021/10/01 01:10:55;;;;;;;7.90;5.58;;;;;;;12.84;84.84;98716.16;1777075;80;21073;-78
2021/10/01 01:13:41;;;;;;;7.58;5.67;;;;;;;12.90;85.01;98715.98;1751304;82;21049;-78
2021/10/01 01:16:15;;;;;;;6.72;4.85;;;;;;;12.94;84.67;98716.32;1730115;82;21026;-78
2021/10/01 01:18:49;;;;;;;6.03;5.10;;;;;;;12.96;84.69;98706.53;1768223;80;20967;-79
2021/10/01 01:21:58;;;;;;;6.43;4.77;;;;;;;12.99;84.60;98708.23;1784440;80;21017;-77
2021/10/01 01:24:55;;;;;;;7.22;5.30;;;;;;;12.99;84.60;98708.23;1754535;80;21700;-77
2021/10/01 01:27:52;;;;;;;8.70;5.67;;;;;;;13.03;84.78;98712.52;1752995;82;21479;-77
2021/10/01 01:30:22;;;;;;;7.42;5.75;;;;;;;13.00;84.34;98699.33;1708605;82;21415;-77
2021/10/01 01:32:55;;;;;;;7.53;5.65;;;;;;;12.98;84.04;98699.81;1733373;81;21441;-76
2021/10/01 01:35:32;;;;;;;8.38;6.15;;;;;;;12.92;83.94;98701.73;1755129;80;21013;-76
2021/10/01 01:38:11;;;;;;;9.53;5.65;;;;;;;12.88;84.26;98700.54;1725703;80;21331;-77
2021/10/01 01:40:42;;;;;;;8.60;6.03;;;;;;;12.85;84.02;98701.50;1724928;82;20994;-78
2021/10/01 01:43:10;;;;;;;13.83;6.80;;;;;;;12.81;84.04;98698.50;1741987;80;21016;-77
2021/10/01 01:45:39;;;;;;;8.53;6.00;;;;;;;12.78;84.23;98698.13;1783706;80;21064;-77
2021/10/01 01:48:09;;;;;;;8.70;6.47;;;;;;;12.77;84.42;98700.83;1777134;80;21120;-76
2021/10/01 01:50:37;;;;;;;9.05;6.75;;;;;;;12.75;84.18;98702.67;1752769;80;21001;-77
2021/10/01 01:53:06;;;;;;;9.55;5.97;;;;;;;12.71;84.34;98703.66;1761227;81;21537;-76
2021/10/01 01:55:34;;;;;;;8.90;6.35;;;;;;;12.66;84.08;98707.31;1743938;81;21613;-77
2021/10/01 01:58:03;;;;;;;9.18;6.10;;;;;;;12.63;84.02;98705.20;1734437;82;21447;-76
2021/10/01 02:00:34;;;;;;;10.45;6.45;;;;;;;12.61;84.13;98708.33;1727776;82;21120;-76
2021/10/01 02:03:03;;;;;;;9.10;6.28;;;;;;;12.61;84.41;98710.99;1751912;81;21019;-77
2021/10/01 02:05:30;;;;;;;8.03;5.75;;;;;;;12.57;84.62;98707.55;1722458;82;21000;-76
2021/10/01 02:08:00;;;;;;;10.65;6.87;;;;;;;12.57;84.40;98712.87;1745518;81;21048;-76
2021/10/01 02:10:28;;;;;;;9.73;6.30;;;;;;;12.57;84.47;98712.02;1745612;82;21061;-78
2021/10/01 02:12:58;;;;;;;9.78;7.15;;;;;;;12.55;84.26;98712.05;1758840;81;20945;-76
2021/10/01 02:15:29;;;;;;;12.25;6.80;;;;;;;12.54;84.16;98712.94;1761498;81;21016;-77
2021/10/01 02:18:00;;;;;;;13.32;9.08;;;;;;;12.52;84.34;98713.45;1747268;81;21465;-76
2021/10/01 02:20:30;;;;;;;14.73;9.20;;;;;;;12.50;84.42;98715.28;1737370;81;21166;-77
2021/10/01 02:23:00;;;;;;;12.23;9.25;;;;;;;12.49;84.41;98713.07;1723374;82;21035;-77
2021/10/01 02:28:30;;;;;;;16.40;9.95;;;;;;;12.46;84.52;98717.12;1758462;80;20992;-77
2021/10/01 02:31:01;;;;;;;14.83;9.58;;;;;;;12.43;84.60;98713.23;1776909;81;21022;-77
2021/10/01 02:33:36;;;;;;;12.53;8.75;;;;;;;12.42;84.78;98711.50;1754769;81;21007;-77
2021/10/01 02:36:03;;;;;;;18.32;10.65;;;;;;;12.41;84.77;98717.70;1761093;81;21028;-76
2021/10/01 02:38:29;;;;;;;15.30;9.83;;;;;;;12.39;85.06;98714.22;1746742;81;20963;-77
2021/10/01 02:40:56;;;;;;;15.48;10.13;;;;;;;12.39;84.81;98716.88;1746047;82;20982;-76
2021/10/01 02:43:23;;;;;;;17.35;12.00;;;;;;;12.41;84.96;98719.91;1752584;82;21020;-77
2021/10/01 02:45:51;;;;;;;17.40;11.00;;;;;;;12.43;84.51;98719.88;1737935;81;21698;-77
2021/10/01 02:48:18;;;;;;;17.87;11.68;;;;;;;12.42;84.96;98716.81;1753811;80;20961;-76
2021/10/01 02:50:58;;;;;;;15.83;10.82;;;;;;;12.45;85.07;98723.36;1745641;82;21060;-76
2021/10/01 02:53:41;;;;;;;15.38;9.08;;;;;;;12.49;85.19;98722.81;1752528;82;20981;-76
2021/10/01 02:56:19;;;;;;;15.20;9.03;;;;;;;12.51;85.15;98721.87;1716648;84;21054;-77
2021/10/01 02:58:56;;;;;;;11.45;7.55;;;;;;;12.54;85.27;98721.80;1724894;81;21025;-76
2021/10/01 03:01:27;;;;;;;16.85;9.15;;;;;;;12.58;85.54;98717.74;1740082;82;21042;-77
2021/10/01 03:04:06;;;;;;;13.93;8.38;;;;;;;12.62;85.50;98716.75;1748230;81;21060;-77
2021/10/01 03:06:36;;;;;;;15.05;8.13;;;;;;;12.64;85.60;98718.91;1759375;81;21081;-76
2021/10/01 03:09:06;;;;;;;11.63;7.35;;;;;;;12.66;85.64;98717.06;1746159;82;21058;-76
2021/10/01 03:11:35;;;;;;;11.12;8.10;;;;;;;12.67;85.53;98715.70;1716060;82;21038;-77
2021/10/01 03:14:07;;;;;;;9.58;6.08;;;;;;;12.70;85.67;98708.57;1716359;83;20996;-77
2021/10/01 03:16:35;;;;;;;9.35;6.40;;;;;;;12.69;85.59;98711.67;1691049;83;21009;-77
2021/10/01 03:19:06;;;;;;;7.60;5.65;;;;;;;12.67;85.65;98711.70;1732454;83;20987;-77
2021/10/01 03:21:37;;;;;;;8.85;6.22;;;;;;;12.68;85.63;98712.12;1719506;83;21017;-77
2021/10/01 03:24:05;;;;;;;12.05;7.10;;;;;;;12.66;85.60;98707.31;1719482;83;21471;-77
2021/10/01 03:26:33;;;;;;;9.53;6.95;;;;;;;12.66;85.50;98712.63;1718405;83;21039;-77
2021/10/01 03:29:03;;;;;;;10.65;7.90;;;;;;;12.63;85.34;98709.19;1689788;85;21345;-77
2021/10/01 03:31:29;;;;;;;10.00;6.75;;;;;;;12.59;85.22;98711.50;1716522;84;21430;-77
2021/10/01 03:33:56;;;;;;;12.85;7.60;;;;;;;12.56;85.43;98703.16;1667580;86;20988;-77
2021/10/01 03:36:24;;;;;;;15.90;9.23;;;;;;;12.54;85.36;98706.29;1683341;83;21059;-76
2021/10/01 03:38:57;;;;;;;13.70;8.70;;;;;;;12.51;85.28;98702.41;1668463;85;21467;-77
2021/10/01 03:41:24;;;;;;;13.38;8.38;;;;;;;12.46;84.93;98703.83;1710200;83;20977;-76
2021/10/01 03:43:52;;;;;;;12.65;8.23;;;;;;;12.39;85.12;98706.25;1722633;83;21019;-77
2021/10/01 03:46:20;;;;;;;14.75;8.38;;;;;;;12.36;85.03;98704.98;1723008;83;21056;-76
2021/10/01 03:48:47;;;;;;;17.52;9.83;;;;;;;12.33;85.34;98703.75;1722118;83;21010;-77
2021/10/01 03:51:13;;;;;;;18.80;11.10;;;;;;;12.30;85.08;98695.84;1724730;82;20947;-77
2021/10/01 03:53:40;;;;;;;16.02;9.53;;;;;;;12.26;85.76;98707.02;1700405;83;20974;-77
2021/10/01 03:56:16;;;;;;;16.45;9.23;;;;;;;12.24;85.60;98704.39;1695950;83;21022;-76
2021/10/01 03:58:37;;;;;;;16.05;9.65;;;;;;;12.22;86.31;98708.88;1713260;83;21002;-77
2021/10/01 04:01:07;;;;;;;16.12;10.10;;;;;;;12.21;86.00;98704.94;1705705;83;20994;-77
2021/10/01 04:03:33;;;;;;;21.95;12.18;;;;;;;12.20;85.73;98702.72;1676695;84;21480;-77
2021/10/01 04:06:00;;;;;;;27.73;14.73;;;;;;;12.18;85.81;98700.56;1675076;85;21305;-77
2021/10/01 04:08:26;;;;;;;30.92;15.88;;;;;;;12.16;85.72;98700.19;1690544;83;20998;-77
2021/10/01 04:10:53;;;;;;;28.75;15.40;;;;;;;12.13;85.80;98698.00;1721890;82;21051;-76
2021/10/01 04:13:19;;;;;;;28.30;16.45;;;;;;;12.11;85.97;98699.84;1703806;83;21005;-77
2021/10/01 04:15:48;;;;;;;33.45;18.57;;;;;;;12.11;86.17;98706.92;1728342;82;21045;-77
2021/10/01 04:18:15;;;;;;;41.90;19.80;;;;;;;12.09;86.52;98699.46;1765554;80;21045;-77
2021/10/01 04:20:45;;;;;;;32.78;17.95;;;;;;;12.08;86.50;98705.69;1747162;81;21029;-77
2021/10/01 04:23:11;;;;;;;34.45;17.05;;;;;;;12.10;86.09;98704.74;1727292;82;21056;-76
2021/10/01 04:25:58;;;;;;;32.70;16.00;;;;;;;12.13;86.07;98705.98;1741674;80;21449;-77
2021/10/01 04:28:26;;;;;;;32.48;16.42;;;;;;;12.16;86.21;98704.17;1749989;81;21465;-76
2021/10/01 04:30:54;;;;;;;29.63;16.23;;;;;;;12.19;86.41;98710.72;1751765;82;21020;-77
2021/10/01 04:33:25;;;;;;;29.90;15.83;;;;;;;12.22;86.48;98717.30;1776338;80;21011;-77
2021/10/01 04:35:54;;;;;;;26.97;14.58;;;;;;;12.25;86.54;98712.77;1776488;81;21379;-77
2021/10/01 04:38:22;;;;;;;27.52;15.32;;;;;;;12.29;86.74;98710.91;1762342;81;21014;-77
2021/10/01 04:40:50;;;;;;;25.30;14.50;;;;;;;12.35;86.72;98712.55;1757824;80;20964;-77
2021/10/01 04:43:18;;;;;;;21.35;12.80;;;;;;;12.38;86.61;98715.14;1756523;82;21067;-76
2021/10/01 04:46:04;;;;;;;26.37;13.13;;;;;;;12.41;86.74;98717.26;1746417;82;21003;-77
2021/10/01 04:48:33;;;;;;;26.00;14.18;;;;;;;12.46;86.83;98718.93;1734467;82;21003;-77
2021/10/01 04:51:00;;;;;;;23.70;12.90;;;;;;;12.46;86.78;98719.78;1688323;83;21433;-77
2021/10/01 04:53:27;;;;;;;27.80;13.32;;;;;;;12.48;86.74;98722.41;1706912;83;21444;-76
2021/10/01 04:55:53;;;;;;;22.25;12.70;;;;;;;12.51;86.70;98720.53;1752369;81;21065;-77
2021/10/01 04:58:19;;;;;;;24.47;13.32;;;;;;;12.51;86.68;98721.87;1734579;81;20978;-76
2021/10/01 05:01:02;;;;;;;24.27;14.28;;;;;;;12.51;86.71;98726.33;1774292;81;21034;-77
2021/10/01 05:03:47;;;;;;;21.82;14.33;;;;;;;12.49;86.54;98726.80;1752600;82;21435;-76
2021/10/01 05:06:32;;;;;;;21.97;14.07;;;;;;;12.50;86.50;98732.09;1752175;82;21448;-76
2021/10/01 05:09:16;;;;;;;27.98;16.20;;;;;;;12.48;86.45;98733.93;1769770;81;20999;-77
2021/10/01 05:12:01;;;;;;;26.15;14.95;;;;;;;12.47;86.41;98733.52;1762334;81;21030;-77
2021/10/01 05:14:46;;;;;;;26.52;15.40;;;;;;;12.48;86.24;98735.26;1746463;81;21513;-77
2021/10/01 05:17:34;;;;;;;;;;;;;;;12.46;86.11;98734.88;1740415;80;21060;-77
2021/10/01 05:20:18;;;;;;;25.15;14.45;;;;;;;12.43;86.36;98734.50;1761971;81;20099;-77
2021/10/01 05:22:50;;;;;;;24.82;16.27;;;;;;;12.42;86.23;98739.41;1748791;82;21051;-76
2021/10/01 05:25:17;;;;;;;24.43;16.17;;;;;;;12.44;86.37;98745.55;1747612;81;21022;-77
2021/10/01 05:27:43;;;;;;;31.82;17.75;;;;;;;12.44;86.75;98747.31;1747420;82;21036;-77
2021/10/01 05:30:12;;;;;;;29.02;17.75;;;;;;;12.41;85.93;98749.16;1728765;81;21512;-77
2021/10/01 05:32:38;;;;;;;29.25;17.35;;;;;;;12.38;85.84;98751.87;1747177;82;21000;-77
2021/10/01 05:35:05;;;;;;;29.37;17.30;;;;;;;12.36;85.89;98751.50;1717549;83;20984;-77
2021/10/01 05:37:32;;;;;;;30.60;17.32;;;;;;;12.32;86.54;98756.47;1732801;81;21022;-77
2021/10/01 05:39:58;;;;;;;34.08;18.82;;;;;;;12.29;86.15;98750.77;1708678;82;21065;-77
2021/10/01 05:42:25;;;;;;;32.28;19.95;;;;;;;12.29;86.05;98758.75;1741607;81;21052;-77
2021/10/01 05:44:52;;;;;;;31.40;18.00;;;;;;;12.27;85.89;98756.59;1756928;81;20973;-77
2021/10/01 05:47:37;;;;;;;33.73;18.00;;;;;;;12.27;85.84;98760.14;1744180;81;20983;-77
2021/10/01 05:50:12;;;;;;;34.80;19.50;;;;;;;12.27;85.67;98764.13;1700583;82;21042;-77
2021/10/01 05:53:05;;;;;;;40.73;19.67;;;;;;;12.26;85.97;98758.37;1739104;82;20976;-78
2021/10/01 05:55:52;;;;;;;39.50;20.50;;;;;;;12.27;86.08;98760.58;1756449;82;20965;-77
2021/10/01 05:58:39;;;;;;;39.18;19.32;;;;;;;12.26;85.79;98763.68;1709200;83;21053;-77
2021/10/01 06:01:07;;;;;;;40.73;19.37;;;;;;;12.25;86.37;98764.59;1732129;81;20988;-77
2021/10/01 06:03:33;;;;;;;44.10;19.60;;;;;;;12.27;86.00;98765.89;1753616;81;21030;-77
2021/10/01 06:06:01;;;;;;;42.38;19.65;;;;;;;12.27;85.82;98768.11;1748315;81;21310;-77
2021/10/01 06:08:27;;;;;;;44.50;19.90;;;;;;;12.30;85.74;98767.61;1750201;80;21554;-77
2021/10/01 06:10:54;;;;;;;36.53;18.70;;;;;;;12.34;85.84;98770.61;1752550;82;21022;-77
2021/10/01 06:13:20;;;;;;;30.52;17.30;;;;;;;12.37;85.99;98770.55;1758952;81;20992;-77
2021/10/01 06:15:47;;;;;;;28.42;15.50;;;;;;;12.42;85.98;98772.64;1736656;82;21488;-76
2021/10/01 06:18:14;;;;;;;37.40;15.23;;;;;;;12.47;86.44;98774.72;1717778;82;20995;-76
2021/10/01 06:20:41;;;;;;;27.93;14.28;;;;;;;12.51;86.52;98785.67;1724499;82;21503;-77
2021/10/01 06:23:07;;;;;;;26.90;14.45;;;;;;;12.56;86.53;98776.72;1737042;82;21050;-77
2021/10/01 06:25:34;;;;;;;25.23;14.68;;;;;;;12.62;86.60;98784.09;1755600;80;20939;-77
2021/10/01 06:28:01;;;;;;;26.68;14.28;;;;;;;12.68;86.63;98784.40;1766325;81;21007;-77
2021/10/01 06:30:27;;;;;;;33.78;14.85;;;;;;;12.74;86.49;98782.91;1760997;81;21027;-77
2021/10/01 06:32:53;;;;;;;25.08;13.88;;;;;;;12.78;86.52;98783.24;1743166;82;21071;-77
2021/10/01 06:35:20;;;;;;;25.43;14.83;;;;;;;12.82;86.22;98787.16;1760096;81;20963;-77
2021/10/01 06:37:47;;;;;;;26.25;14.98;;;;;;;12.85;86.29;98791.05;1774784;81;21050;-76
2021/10/01 06:40:14;;;;;;;29.52;15.70;;;;;;;12.89;86.27;98786.08;1772535;81;21077;-77
2021/10/01 06:42:46;;;;;;;30.62;16.70;;;;;;;12.90;85.93;98794.02;1755805;81;21014;-77
2021/10/01 06:45:09;;;;;;;32.30;17.62;;;;;;;12.91;85.92;98794.44;1748647;81;21529;-77
2021/10/01 06:47:46;;;;;;;29.85;15.75;;;;;;;12.93;85.58;98789.97;1749944;82;21039;-77
2021/10/01 06:50:30;;;;;;;29.85;17.50;;;;;;;12.92;85.30;98793.52;1734555;82;21061;-76
2021/10/01 08:19:25;;;;;;;22.45;14.33;;;;;;;14.00;82.48;98797.20;1681831;84;21484;-76
2021/10/01 08:21:54;;;;;;;21.65;14.93;;;;;;;14.02;81.84;98796.69;1732626;80;21467;-79
2021/10/01 08:24:21;;;;;;;26.05;14.87;;;;;;;14.05;81.57;98799.27;1752543;81;21442;-77
2021/10/01 08:26:51;;;;;;;21.30;13.45;;;;;;;14.07;81.35;98793.90;1746156;82;21038;-77
2021/10/01 08:29:19;;;;;;;27.40;13.83;;;;;;;14.05;81.10;98802.38;1751713;80;21013;-78
2021/10/01 08:31:49;;;;;;;23.42;14.50;;;;;;;14.04;80.72;98796.64;1731559;81;21045;-77
2021/10/01 08:34:17;;;;;;;21.45;14.30;;;;;;;14.01;80.88;98796.28;1752418;82;21021;-77
2021/10/01 08:36:47;;;;;;;23.42;15.03;;;;;;;14.00;80.68;98797.20;1728199;81;21418;-78
2021/10/01 08:39:14;;;;;;;22.70;14.95;;;;;;;14.02;80.72;98797.13;1715816;81;21014;-77
2021/10/01 08:41:41;;;;;;;27.05;15.13;;;;;;;14.01;80.49;98800.72;1716278;81;21475;-76
2021/10/01 08:44:08;;;;;;;27.15;15.83;;;;;;;13.97;80.36;98795.52;1735505;81;20994;-76
2021/10/01 08:46:35;;;;;;;29.67;15.80;;;;;;;13.95;80.11;98799.14;1751579;82;20997;-76
2021/10/01 08:49:06;;;;;;;22.20;14.55;;;;;;;13.96;80.49;98794.22;1745078;82;21088;-76
2021/10/01 08:51:34;;;;;;;24.72;14.60;;;;;;;13.94;79.70;98794.70;1760926;80;20994;-76
2021/10/01 08:54:00;;;;;;;26.40;15.68;;;;;;;13.94;80.18;98791.59;1776862;81;20986;-76
2021/10/01 08:56:27;;;;;;;28.67;16.93;;;;;;;14.02;80.06;98791.36;1756827;81;21490;-75
2021/10/01 08:58:56;;;;;;;22.77;14.90;;;;;;;14.06;79.92;98790.80;1752851;82;21391;-75
2021/10/01 09:01:23;;;;;;;21.10;13.65;;;;;;;14.05;79.54;98792.61;1758815;80;21038;-76
2021/10/01 09:03:50;;;;;;;22.02;13.20;;;;;;;14.05;79.92;98792.61;1777404;81;20951;-76
2021/10/01 09:06:18;;;;;;;18.98;13.50;;;;;;;14.12;79.99;98795.48;1778393;81;21435;-76
2021/10/01 09:08:57;;;;;;;22.58;14.25;;;;;;;14.17;79.21;98792.69;1752667;80;21002;-76
2021/10/01 09:11:35;;;;;;;22.52;14.33;;;;;;;14.20;79.58;98788.56;1756607;80;21042;-75
2021/10/01 09:14:09;;;;;;;20.27;13.10;;;;;;;14.28;78.84;98790.14;1777037;81;21447;-76
2021/10/01 09:16:37;;;;;;;;;;;;;;;14.36;79.00;98789.41;1776845;79;20961;-76
2021/10/01 09:19:06;;;;;;;18.42;12.45;;;;;;;14.41;78.86;98786.61;1779127;80;20329;-76
2021/10/01 09:21:43;;;;;;;21.60;14.65;;;;;;;14.43;78.80;98783.41;1772979;80;21081;-76
2021/10/01 09:24:13;;;;;;;19.87;13.40;;;;;;;14.50;78.60;98783.64;1753383;82;21415;-76
2021/10/01 09:26:53;;;;;;;22.02;13.95;;;;;;;14.55;78.40;98787.03;1769301;81;20983;-76
2021/10/01 09:29:34;;;;;;;21.95;14.10;;;;;;;14.59;78.43;98778.45;1748490;82;21043;-77
2021/10/01 09:32:14;;;;;;;21.87;14.55;;;;;;;14.71;78.56;98782.06;1745478;81;21121;-76
2021/10/01 09:34:45;;;;;;;21.93;14.53;;;;;;;14.82;77.61;98783.52;1736269;82;21392;-77
2021/10/01 09:37:17;;;;;;;21.57;13.50;;;;;;;14.89;76.19;98783.70;1753483;81;21415;-75
2021/10/01 09:39:48;;;;;;;23.80;13.85;;;;;;;14.93;77.11;98785.80;1723346;83;21007;-75
2021/10/01 09:42:25;;;;;;;20.08;12.78;;;;;;;15.02;76.69;98777.02;1746288;81;21058;-77
2021/10/01 09:44:56;;;;;;;20.45;13.98;;;;;;;15.14;76.30;98779.72;1776906;81;21514;-75
2021/10/01 09:47:30;;;;;;;21.17;14.25;;;;;;;15.30;76.37;98777.38;1775749;81;21408;-76
2021/10/01 09:50:01;;;;;;;23.12;13.85;;;;;;;15.50;75.70;98777.10;1753380;82;20953;-78
2021/10/01 09:52:54;;;;;;;22.32;14.65;;;;;;;15.69;75.74;98777.27;1769546;79;21520;-76
2021/10/01 09:55:31;;;;;;;19.75;13.58;;;;;;;15.93;75.29;98771.03;1752811;82;21023;-76
2021/10/01 09:58:08;;;;;;;19.57;14.25;;;;;;;16.08;74.60;98770.45;1746690;82;20991;-76
2021/10/01 10:00:46;;;;;;;20.97;13.43;;;;;;;16.21;74.42;98769.97;1740343;82;21404;-76
2021/10/01 10:03:26;;;;;;;19.70;13.38;;;;;;;16.43;72.15;98769.08;1733024;82;21011;-76
2021/10/01 10:06:03;;;;;;;19.20;12.95;;;;;;;16.70;70.67;98772.90;1723514;82;20979;-76
2021/10/01 10:08:36;;;;;;;18.50;13.53;;;;;;;16.93;72.75;98767.89;1723276;83;21138;-76
2021/10/01 10:11:13;;;;;;;18.48;11.80;;;;;;;17.06;71.14;98757.54;1726923;82;20936;-76
2021/10/01 10:13:53;;;;;;;16.35;12.20;;;;;;;17.21;71.62;98760.48;1723359;83;21019;-76
2021/10/01 10:16:24;;;;;;;18.00;12.58;;;;;;;17.47;71.27;98756.63;1723109;82;21026;-76
2021/10/01 10:18:58;;;;;;;20.40;13.65;;;;;;;17.65;69.37;98749.54;1733044;82;21311;-76
2021/10/01 10:21:26;;;;;;;17.60;12.65;;;;;;;17.87;68.76;98752.56;1776591;80;21022;-77
2021/10/01 10:23:53;;;;;;;15.25;11.93;;;;;;;17.97;68.38;98750.79;1749215;81;21068;-76
2021/10/01 10:26:20;;;;;;;20.02;12.20;;;;;;;18.05;64.78;98744.11;1753632;81;20980;-77
2021/10/01 10:28:47;;;;;;;19.10;12.60;;;;;;;18.34;67.23;98746.33;1750742;82;21445;-76
2021/10/01 10:31:17;;;;;;;24.77;13.20;;;;;;;18.86;65.03;98742.81;1744522;81;21006;-77
2021/10/01 10:33:48;;;;;;;19.62;12.30;;;;;;;19.70;64.75;98736.67;1739241;82;21054;-77
2021/10/01 10:36:38;;;;;;;16.87;12.03;;;;;;;20.49;63.77;98736.75;1764902;80;20998;-77
2021/10/01 10:39:17;;;;;;;16.45;11.57;;;;;;;20.90;61.58;98736.16;1757014;82;20937;-76
2021/10/01 10:42:01;;;;;;;14.80;11.28;;;;;;;21.01;57.44;98726.55;1752713;81;21037;-77
2021/10/01 10:44:49;;;;;;;18.10;11.60;;;;;;;21.05;57.40;98723.56;1743452;81;21070;-76
2021/10/01 10:47:51;;;;;;;17.37;11.63;;;;;;;21.60;55.50;98714.83;1739354;82;20975;-77
2021/10/01 10:50:44;;;;;;;16.05;12.03;;;;;;;23.75;51.82;98704.98;1769271;81;20991;-77
2021/10/01 10:53:17;;;;;;;19.17;12.15;;;;;;;23.75;51.82;98704.98;1772180;81;20987;-78
2021/10/01 10:56:06;;;;;;;18.00;11.83;;;;;;;24.32;52.39;98701.27;1753262;82;20985;-78
2021/10/01 10:58:38;;;;;;;16.97;11.70;;;;;;;24.97;48.28;98703.63;1760884;80;21105;-78
2021/10/01 11:01:23;;;;;;;16.25;12.90;;;;;;;25.51;48.73;98687.16;1777258;81;20982;-78
2021/10/01 11:04:12;;;;;;;15.98;11.50;;;;;;;26.10;42.96;98674.27;1777056;81;21400;-78
2021/10/01 11:06:38;;;;;;;17.15;11.05;;;;;;;26.35;42.99;98680.86;1760913;81;20996;-78
2021/10/01 11:09:27;;;;;;;14.03;10.28;;;;;;;26.60;45.08;98681.01;1737753;82;21408;-78
2021/10/01 11:11:58;;;;;;;12.33;9.73;;;;;;;27.22;45.02;98676.20;1716818;84;21022;-78
2021/10/01 11:14:24;;;;;;;14.63;9.95;;;;;;;27.86;41.96;98674.66;1722972;83;21054;-78
2021/10/01 11:17:01;;;;;;;13.68;9.85;;;;;;;28.38;43.67;98670.89;1707010;83;22350;-78
2021/10/01 11:19:41;;;;;;;14.40;10.30;;;;;;;28.90;40.54;98673.84;1758453;80;20995;-78
2021/10/01 11:22:37;;;;;;;13.45;10.03;;;;;;;29.09;40.53;98666.09;1781025;80;21015;-79
2021/10/01 11:25:17;;;;;;;11.68;9.65;;;;;;;28.28;40.46;98665.95;1780923;80;21027;-78
2021/10/01 11:27:52;;;;;;;14.93;10.30;;;;;;;27.99;38.18;98659.93;1757056;82;20976;-78
2021/10/01 11:30:19;;;;;;;14.68;10.25;;;;;;;27.91;36.01;98656.03;1735870;82;20984;-78
2021/10/01 11:32:46;;;;;;;12.13;9.93;;;;;;;28.29;37.88;98644.50;1750152;82;21015;-78
2021/10/01 11:35:13;;;;;;;12.33;10.30;;;;;;;28.40;37.76;98644.34;1766711;81;21480;-78
2021/10/01 11:37:45;;;;;;;13.90;8.90;;;;;;;29.03;38.57;98640.77;1766630;81;21054;-78
2021/10/01 11:40:25;;;;;;;16.17;9.55;;;;;;;29.19;38.76;98634.66;1739688;81;21392;-78
2021/10/01 11:42:56;;;;;;;13.38;9.80;;;;;;;29.56;36.84;98626.64;1749368;82;21620;-78
2021/10/01 11:45:35;;;;;;;14.28;9.60;;;;;;;29.58;35.83;98624.11;1750663;82;21491;-78
2021/10/01 11:48:09;;;;;;;12.70;8.95;;;;;;;28.86;36.15;98634.19;1756697;81;21036;-78
2021/10/01 11:50:43;;;;;;;14.18;9.20;;;;;;;27.72;37.79;98624.19;1715164;84;20979;-78
2021/10/01 11:53:23;;;;;;;11.85;9.43;;;;;;;26.90;39.32;98624.09;1720422;83;21367;-78
2021/10/01 11:55:55;;;;;;;12.98;9.60;;;;;;;25.93;39.42;98615.92;1707276;84;21484;-79
2021/10/01 11:58:24;;;;;;;12.15;9.55;;;;;;;25.07;40.84;98614.30;1722451;81;21474;-78
2021/10/01 12:00:52;;;;;;;12.90;9.38;;;;;;;24.22;41.80;98624.81;1775277;81;20987;-77
2021/10/01 12:03:20;;;;;;;14.80;8.98;;;;;;;23.67;43.04;98618.45;1775655;81;21038;-78
2021/10/01 12:05:55;;;;;;;12.82;9.18;;;;;;;23.23;44.46;98619.36;1769736;81;21025;-78
2021/10/01 12:08:23;;;;;;;12.10;8.08;;;;;;;22.48;45.41;98615.08;1747570;81;21057;-78
2021/10/01 12:10:54;;;;;;;14.30;8.13;;;;;;;22.21;46.52;98622.73;1774955;81;20986;-77
2021/10/01 12:13:24;;;;;;;16.42;8.25;;;;;;;22.27;46.48;98620.98;1775424;81;21006;-77
2021/10/01 12:15:55;;;;;;;11.93;8.15;;;;;;;22.19;47.39;98616.58;1775419;81;21027;-80
2021/10/01 12:18:41;;;;;;;14.43;8.15;;;;;;;22.37;46.99;98610.88;1770476;81;20971;-77
2021/10/01 12:21:20;;;;;;;16.80;9.45;;;;;;;22.32;46.82;98604.45;1777876;81;21022;-77
2021/10/01 12:24:10;;;;;;;12.23;7.78;;;;;;;22.17;46.77;98600.95;1778442;81;21002;-77
2021/10/01 12:26:38;;;;;;;12.55;7.53;;;;;;;21.86;47.91;98598.98;1770560;81;21038;-76
2021/10/01 12:29:13;;;;;;;10.70;6.80;;;;;;;21.49;48.65;98590.11;1760254;81;20979;-77
2021/10/01 12:31:56;;;;;;;18.25;7.60;;;;;;;21.32;48.89;98583.11;1778287;81;20987;-78
2021/10/01 12:34:33;;;;;;;14.23;7.58;;;;;;;21.32;48.89;98583.11;1778743;80;21046;-77
2021/10/01 12:37:08;;;;;;;12.95;7.15;;;;;;;21.18;49.25;98583.52;1778196;81;21034;-78
2021/10/01 12:39:38;;;;;;;10.40;6.87;;;;;;;20.95;49.96;98589.02;1750484;80;21408;-78
2021/10/01 12:42:09;;;;;;;9.43;6.70;;;;;;;20.84;50.52;98581.58;1747434;82;21050;-78
2021/10/01 12:44:40;;;;;;;15.08;7.42;;;;;;;20.72;50.48;98583.23;1747780;82;21426;-78
2021/10/01 12:47:16;;;;;;;10.20;6.72;;;;;;;20.41;50.47;98582.41;1747831;82;21066;-76
2021/10/01 12:50:00;;;;;;;11.60;7.80;;;;;;;20.14;51.31;98579.94;1763644;81;20998;-76
2021/10/01 12:52:28;;;;;;;16.77;10.35;;;;;;;19.98;51.42;98577.33;1729176;82;21037;-76
2021/10/01 12:55:04;;;;;;;10.63;6.37;;;;;;;19.81;51.63;98579.62;1753069;81;21004;-76
2021/10/01 12:57:39;;;;;;;9.90;7.08;;;;;;;19.85;51.86;98577.12;1764978;80;20971;-76
2021/10/01 13:00:13;;;;;;;9.95;6.37;;;;;;;19.94;51.97;98573.05;1749960;81;21002;-76
2021/10/01 13:02:44;;;;;;;9.78;6.60;;;;;;;19.98;51.55;98572.41;1754649;81;20949;-76
2021/10/01 13:05:23;;;;;;;11.20;5.95;;;;;;;19.78;51.63;98571.27;1761800;81;21051;-77
2021/10/01 13:08:02;;;;;;;7.17;5.50;;;;;;;19.61;51.62;98568.20;1751228;81;20982;-76
2021/10/01 13:10:42;;;;;;;9.60;6.15;;;;;;;19.46;51.84;98575.78;1745630;81;21423;-76
2021/10/01 13:13:22;;;;;;;8.75;6.37;;;;;;;19.28;52.00;98563.80;1746740;82;21026;-77
2021/10/01 13:15:58;;;;;;;13.03;6.95;;;;;;;19.13;52.29;98560.13;1765091;80;21442;-76
2021/10/01 13:18:35;;;;;;;13.60;6.50;;;;;;;18.95;53.51;98560.19;1724854;82;21051;-76